Time;durP1;ratioP1;P1;durP2;ratioP2;P2;SDS_P1;SDS_P2;PMS_P1;PMS_P2;Temp;Humidity;BMP_temperature;BMP_pressure;BME280_temperature;BME280_humidity;BME280_pressure;Samples;Min_cycle;Max_cycle;Signal;HPM_P1;HPM_P2
2023/07/13 00:00:15;;;;;;;10.07;2.43;;;18.30;99.90;;;;;;5093861;28;20536;-68
2023/07/13 00:02:41;;;;;;;9.83;2.50;;;18.30;99.90;;;;;;5093406;28;20977;-68
2023/07/13 00:05:07;;;;;;;9.10;2.20;;;18.30;99.90;;;;;;5093684;28;20142;-67
2023/07/13 00:07:33;;;;;;;5.73;1.77;;;18.30;99.90;;;;;;5094204;28;20519;-68
2023/07/13 00:09:59;;;;;;;6.27;1.97;;;18.30;99.90;;;;;;5094736;28;20093;-68
2023/07/13 00:12:28;;;;;;;6.00;1.90;;;18.30;99.90;;;;;;5094524;28;20135;-68
2023/07/13 00:15:00;;;;;;;9.83;2.00;;;18.30;99.90;;;;;;5094758;28;20043;-68
2023/07/13 00:17:27;;;;;;;7.40;1.50;;;18.30;99.90;;;;;;5094348;28;20043;-68
2023/07/13 00:19:55;;;;;;;5.23;1.93;;;18.30;99.90;;;;;;5094785;28;20141;-67
2023/07/13 00:22:21;;;;;;;6.17;1.73;;;18.20;99.90;;;;;;5094603;28;20047;-67
2023/07/13 00:24:47;;;;;;;6.87;1.90;;;18.20;99.90;;;;;;5094483;28;20059;-67
2023/07/13 00:27:14;;;;;;;3.57;1.40;;;18.20;99.90;;;;;;5094423;28;20043;-67
2023/07/13 00:29:40;;;;;;;5.53;1.50;;;18.20;99.90;;;;;;5093977;28;20044;-68
2023/07/13 00:32:07;;;;;;;6.67;2.60;;;18.20;99.90;;;;;;5094321;28;20074;-67
2023/07/13 00:34:33;;;;;;;6.83;1.77;;;18.20;99.90;;;;;;5093587;28;20056;-67
2023/07/13 00:36:59;;;;;;;10.17;2.07;;;18.10;99.90;;;;;;5094239;28;20385;-67
2023/07/13 00:39:25;;;;;;;4.83;1.93;;;18.00;99.90;;;;;;5094163;28;20052;-68
2023/07/13 00:41:51;;;;;;;8.03;1.90;;;17.90;99.90;;;;;;5094234;28;20040;-67
2023/07/13 00:44:19;;;;;;;5.17;1.70;;;17.90;99.90;;;;;;5094089;28;20101;-67
2023/07/13 00:46:46;;;;;;;9.87;2.17;;;17.90;99.90;;;;;;5093729;28;20055;-67
2023/07/13 00:49:21;;;;;;;6.83;2.17;;;17.80;99.90;;;;;;5093967;28;20467;-67
2023/07/13 00:52:06;;;;;;;5.83;1.83;;;17.80;99.90;;;;;;5093813;28;20044;-67
2023/07/13 00:54:45;;;;;;;7.03;2.58;;;17.80;99.90;;;;;;5093778;28;20054;-68
2023/07/13 00:57:15;;;;;;;4.87;2.00;;;17.70;99.90;;;;;;5093913;28;20472;-67
2023/07/13 00:59:45;;;;;;;5.70;1.87;;;17.70;99.90;;;;;;5093208;28;20476;-67
2023/07/13 01:02:11;;;;;;;6.57;1.60;;;17.70;99.90;;;;;;5093852;28;20131;-67
2023/07/13 01:04:38;;;;;;;5.93;2.03;;;17.70;99.90;;;;;;5093374;28;20066;-67
2023/07/13 01:07:06;;;;;;;6.53;1.63;;;17.70;99.90;;;;;;5093674;28;20044;-67
2023/07/13 01:09:31;;;;;;;6.20;1.63;;;17.70;99.90;;;;;;5093257;28;20115;-67
2023/07/13 01:11:59;;;;;;;4.97;1.63;;;17.70;99.90;;;;;;5093296;28;20506;-67
2023/07/13 01:14:25;;;;;;;5.00;1.40;;;17.70;99.90;;;;;;5093552;28;20177;-67
2023/07/13 01:16:51;;;;;;;5.13;2.07;;;17.70;99.90;;;;;;5093066;28;20523;-67
2023/07/13 01:19:29;;;;;;;6.07;1.40;;;17.70;99.90;;;;;;5093356;28;20044;-67
2023/07/13 01:21:55;;;;;;;5.73;1.40;;;17.70;99.90;;;;;;5093522;28;20056;-67
2023/07/13 01:24:21;;;;;;;2.93;1.30;;;17.70;99.90;;;;;;5093446;28;20100;-67
2023/07/13 01:26:47;;;;;;;3.80;1.30;;;17.60;99.90;;;;;;5093015;28;20066;-67
2023/07/13 01:29:12;;;;;;;6.43;1.50;;;17.60;99.90;;;;;;5092077;28;20032;-67
2023/07/13 01:31:38;;;;;;;5.80;1.40;;;17.60;99.90;;;;;;5092713;28;20048;-67
2023/07/13 01:34:04;;;;;;;5.53;1.23;;;17.60;99.90;;;;;;5091105;28;20066;-67
2023/07/13 01:36:30;;;;;;;3.60;1.20;;;17.60;99.90;;;;;;5092144;28;20048;-67
2023/07/13 01:38:56;;;;;;;3.93;1.50;;;17.50;99.90;;;;;;5092886;28;20048;-67
2023/07/13 01:41:22;;;;;;;7.40;1.77;;;17.50;99.90;;;;;;5092099;28;20442;-67
2023/07/13 01:43:48;;;;;;;6.53;1.57;;;17.50;99.90;;;;;;5092738;28;20083;-68
2023/07/13 01:46:13;;;;;;;4.93;1.60;;;17.50;99.90;;;;;;5093209;28;20083;-67
2023/07/13 01:48:39;;;;;;;6.23;1.50;;;17.40;99.90;;;;;;5092441;28;20368;-67
2023/07/13 01:51:04;;;;;;;5.60;1.77;;;17.40;99.90;;;;;;5092972;28;20052;-67
2023/07/13 01:53:31;;;;;;;6.97;1.57;;;17.40;99.90;;;;;;5092897;28;20058;-67
2023/07/13 01:55:56;;;;;;;6.50;1.90;;;17.40;99.90;;;;;;5092667;28;20083;-67
2023/07/13 01:58:22;;;;;;;7.03;2.10;;;17.40;99.90;;;;;;5092871;28;20083;-68
2023/07/13 02:00:49;;;;;;;4.20;1.40;;;17.30;99.90;;;;;;5092621;28;20048;-67
2023/07/13 02:03:17;;;;;;;6.57;1.80;;;17.30;99.90;;;;;;5092544;28;20051;-67
2023/07/13 02:05:44;;;;;;;5.73;2.10;;;17.30;99.90;;;;;;5091476;28;20047;-67
2023/07/13 02:08:10;;;;;;;5.00;1.70;;;17.30;99.90;;;;;;5092713;28;20080;-67
2023/07/13 02:10:36;;;;;;;4.90;1.70;;;17.30;99.90;;;;;;5092522;28;20094;-69
2023/07/13 02:13:05;;;;;;;4.73;1.40;;;17.20;99.90;;;;;;5092668;28;20441;-67
2023/07/13 02:15:31;;;;;;;6.07;1.67;;;17.20;99.90;;;;;;5092678;28;20052;-67
2023/07/13 02:17:58;;;;;;;6.00;1.80;;;17.20;99.90;;;;;;5092278;28;20044;-67
2023/07/13 02:20:24;;;;;;;7.90;1.90;;;17.10;99.90;;;;;;5092222;28;20094;-67
2023/07/13 02:22:50;;;;;;;9.00;2.43;;;17.10;99.90;;;;;;5092327;28;20044;-67
2023/07/13 02:25:16;;;;;;;5.30;1.67;;;17.10;99.90;;;;;;5096007;28;20048;-67
2023/07/13 02:27:41;;;;;;;5.77;2.10;;;17.10;99.90;;;;;;5096333;28;20040;-68
2023/07/13 02:30:07;;;;;;;6.03;2.00;;;17.00;99.90;;;;;;5096757;28;20047;-67
2023/07/13 02:32:33;;;;;;;5.73;2.20;;;17.00;99.90;;;;;;5096665;28;20106;-67
2023/07/13 02:34:59;;;;;;;8.03;2.00;;;17.00;99.90;;;;;;5095814;28;20503;-67
2023/07/13 02:37:25;;;;;;;7.70;2.20;;;17.00;99.90;;;;;;5096697;28;20411;-67
2023/07/13 02:39:50;;;;;;;8.07;2.30;;;17.00;99.90;;;;;;5096229;28;20039;-67
2023/07/13 02:42:16;;;;;;;8.50;2.50;;;17.00;99.90;;;;;;5096507;28;20050;-67
2023/07/13 02:44:42;;;;;;;9.60;2.83;;;16.90;99.90;;;;;;5096165;28;20047;-67
2023/07/13 02:47:08;;;;;;;6.97;2.70;;;16.90;99.90;;;;;;5096408;28;20035;-67
2023/07/13 02:49:33;;;;;;;10.33;2.70;;;16.90;99.90;;;;;;5096319;28;20541;-67
2023/07/13 02:51:59;;;;;;;9.70;2.40;;;16.90;99.90;;;;;;5095501;28;20116;-67
2023/07/13 02:54:25;;;;;;;12.87;3.30;;;16.90;99.90;;;;;;5096389;28;20052;-67
2023/07/13 02:56:51;;;;;;;9.50;2.70;;;16.90;99.90;;;;;;5095653;28;20113;-67
2023/07/13 02:59:16;;;;;;;8.30;2.47;;;16.90;99.90;;;;;;5095161;28;20048;-67
2023/07/13 03:01:42;;;;;;;11.70;2.80;;;16.90;99.90;;;;;;5094945;28;20093;-68
2023/07/13 03:04:08;;;;;;;10.00;2.63;;;16.90;99.90;;;;;;5095722;28;20070;-67
2023/07/13 03:06:34;;;;;;;10.77;3.00;;;16.80;99.90;;;;;;5096106;28;20122;-67
2023/07/13 03:09:00;;;;;;;12.77;3.23;;;16.80;99.90;;;;;;5095607;28;20572;-67
2023/07/13 03:11:26;;;;;;;13.43;3.23;;;16.90;99.90;;;;;;5095947;28;20130;-67
2023/07/13 03:13:51;;;;;;;12.03;3.53;;;16.80;99.90;;;;;;5095633;28;20044;-67
2023/07/13 03:16:17;;;;;;;10.23;2.97;;;16.90;99.90;;;;;;5095788;28;20472;-67
2023/07/13 03:18:43;;;;;;;12.87;3.17;;;16.80;99.90;;;;;;5095773;28;20040;-69
2023/07/13 03:21:10;;;;;;;11.77;3.47;;;16.90;99.90;;;;;;5094791;28;20044;-67
2023/07/13 03:23:35;;;;;;;12.67;3.27;;;16.90;99.90;;;;;;5095757;28;20074;-67
2023/07/13 03:26:10;;;;;;;12.90;3.30;;;16.90;99.90;;;;;;5095403;28;20048;-67
2023/07/13 03:28:36;;;;;;;16.20;3.78;;;16.90;99.90;;;;;;5094561;28;20115;-67
2023/07/13 03:31:04;;;;;;;11.67;3.03;;;16.90;99.90;;;;;;5094302;28;20479;-68
2023/07/13 03:33:30;;;;;;;11.53;3.40;;;16.80;99.90;;;;;;5095499;28;20131;-67
2023/07/13 03:35:56;;;;;;;17.47;3.83;;;16.80;99.90;;;;;;5095023;28;20086;-68
2023/07/13 03:38:22;;;;;;;14.97;3.37;;;16.80;99.90;;;;;;5094518;28;20055;-68
2023/07/13 03:40:48;;;;;;;12.93;2.93;;;16.80;99.90;;;;;;5095097;28;20040;-68
2023/07/13 03:43:14;;;;;;;13.13;3.33;;;16.80;99.90;;;;;;5095510;28;20122;-67
2023/07/13 03:45:40;;;;;;;12.03;3.10;;;16.80;99.90;;;;;;5095267;28;20134;-67
2023/07/13 03:48:06;;;;;;;11.23;4.07;;;16.80;99.90;;;;;;5094919;28;20036;-67
2023/07/13 03:50:31;;;;;;;12.70;3.33;;;16.80;99.90;;;;;;5095158;28;20060;-67
2023/07/13 03:52:58;;;;;;;12.23;2.93;;;16.80;99.90;;;;;;5094865;28;20101;-67
2023/07/13 03:55:24;;;;;;;9.90;2.70;;;16.80;99.90;;;;;;5094985;28;20051;-67
2023/07/13 03:58:19;;;;;;;12.83;3.50;;;16.80;99.90;;;;;;5094741;28;20036;-68
2023/07/13 04:00:45;;;;;;;14.93;3.60;;;16.80;99.90;;;;;;5093831;28;20055;-67
2023/07/13 04:03:11;;;;;;;13.43;3.70;;;16.80;99.90;;;;;;5094298;28;20051;-68
2023/07/13 04:05:40;;;;;;;13.80;3.10;;;16.80;99.90;;;;;;5095005;28;20055;-67
2023/07/13 04:08:06;;;;;;;11.33;3.10;;;16.90;99.90;;;;;;5094485;28;20185;-67
2023/07/13 04:10:32;;;;;;;10.57;3.63;;;16.80;99.90;;;;;;5094804;28;20054;-67
2023/07/13 04:12:57;;;;;;;13.03;4.37;;;16.80;99.90;;;;;;5093313;28;20044;-67
2023/07/13 04:15:23;;;;;;;11.37;3.87;;;16.90;99.90;;;;;;5094680;28;20048;-67
2023/07/13 04:17:49;;;;;;;9.73;3.20;;;16.90;99.90;;;;;;5094761;28;20097;-67
2023/07/13 04:20:15;;;;;;;12.70;3.00;;;16.90;99.90;;;;;;5094140;28;20399;-67
2023/07/13 04:22:40;;;;;;;16.23;3.13;;;16.90;99.90;;;;;;5094521;28;20067;-67
2023/07/13 04:25:06;;;;;;;10.70;3.07;;;16.90;99.90;;;;;;5094287;28;20087;-68
2023/07/13 04:27:32;;;;;;;11.77;3.70;;;17.00;99.90;;;;;;5094315;28;20116;-68
2023/07/13 04:29:58;;;;;;;14.40;3.33;;;17.00;99.90;;;;;;5093224;28;20483;-67
2023/07/13 04:32:23;;;;;;;11.00;2.87;;;17.00;99.90;;;;;;5094595;28;20040;-67
2023/07/13 04:34:53;;;;;;;12.57;2.70;;;17.10;99.90;;;;;;5094042;28;20091;-67
2023/07/13 04:37:20;;;;;;;12.07;2.73;;;17.10;99.90;;;;;;5094243;28;20535;-67
2023/07/13 04:39:45;;;;;;;10.03;2.60;;;17.10;99.90;;;;;;5092994;28;20491;-67
2023/07/13 04:42:11;;;;;;;9.20;3.00;;;17.10;99.90;;;;;;5092961;28;20043;-67
2023/07/13 04:44:37;;;;;;;8.87;2.80;;;17.20;99.90;;;;;;5094112;28;20044;-67
2023/07/13 04:47:03;;;;;;;9.47;2.70;;;17.20;99.90;;;;;;5093239;28;20089;-68
2023/07/13 04:49:29;;;;;;;9.27;2.97;;;17.30;99.90;;;;;;5094157;28;20408;-68
2023/07/13 04:51:54;;;;;;;8.43;2.70;;;17.30;99.90;;;;;;5093733;28;20048;-68
2023/07/13 04:54:21;;;;;;;10.00;2.97;;;17.40;99.90;;;;;;5093887;28;20044;-68
2023/07/13 04:56:47;;;;;;;10.00;2.80;;;17.50;99.90;;;;;;5093550;28;20495;-67
2023/07/13 04:59:13;;;;;;;10.37;2.63;;;17.60;99.90;;;;;;5093611;28;20044;-68
2023/07/13 05:01:39;;;;;;;13.00;4.87;;;17.60;99.90;;;;;;5093816;28;20448;-67
2023/07/13 05:04:04;;;;;;;8.67;2.50;;;17.70;99.90;;;;;;5092367;28;20052;-68
2023/07/13 05:06:31;;;;;;;11.93;2.73;;;17.80;99.90;;;;;;5093963;28;20177;-68
2023/07/13 05:08:57;;;;;;;9.20;2.70;;;17.90;99.90;;;;;;5093604;28;20039;-68
2023/07/13 05:11:22;;;;;;;13.07;3.67;;;18.00;99.90;;;;;;5093613;28;20130;-68
2023/07/13 05:13:48;;;;;;;12.93;3.43;;;18.10;99.90;;;;;;5093604;28;20047;-68
2023/07/13 05:16:14;;;;;;;12.90;2.67;;;18.20;99.90;;;;;;5091474;28;20044;-68
2023/07/13 05:18:39;;;;;;;10.27;2.97;;;18.40;99.90;;;;;;5093344;28;20040;-68
2023/07/13 05:21:07;;;;;;;9.23;2.77;;;18.50;99.90;;;;;;5093225;28;20448;-68
2023/07/13 05:23:34;;;;;;;10.47;2.67;;;18.60;99.90;;;;;;5092537;28;20044;-67
2023/07/13 05:26:01;;;;;;;11.07;2.43;;;18.60;99.90;;;;;;5093112;28;20083;-68
2023/07/13 05:28:27;;;;;;;9.10;2.97;;;18.70;99.90;;;;;;5093317;28;20050;-67
2023/07/13 05:30:54;;;;;;;7.97;2.30;;;18.90;99.90;;;;;;5093384;28;20105;-67
2023/07/13 05:33:20;;;;;;;10.33;2.97;;;19.00;99.90;;;;;;5092816;28;20066;-68
2023/07/13 05:35:46;;;;;;;10.37;3.10;;;19.10;99.90;;;;;;5091847;28;20056;-68
2023/07/13 05:38:11;;;;;;;9.83;3.20;;;19.20;99.90;;;;;;5092950;28;20055;-68
2023/07/13 05:40:37;;;;;;;9.27;2.63;;;19.30;99.90;;;;;;5093161;28;20494;-67
2023/07/13 05:43:03;;;;;;;11.30;3.37;;;19.40;99.90;;;;;;5092524;28;20051;-68
2023/07/13 05:45:29;;;;;;;6.57;2.50;;;19.50;99.90;;;;;;5093215;28;20063;-68
2023/07/13 05:47:55;;;;;;;8.70;2.33;;;19.60;99.90;;;;;;5093083;28;20050;-67
2023/07/13 05:50:21;;;;;;;8.17;3.20;;;19.80;99.90;;;;;;5092421;28;20047;-68
2023/07/13 05:52:47;;;;;;;8.30;2.50;;;19.90;99.90;;;;;;5093182;28;20094;-68
2023/07/13 05:55:13;;;;;;;6.80;2.77;;;20.20;99.90;;;;;;5092305;28;20044;-68
2023/07/13 05:57:39;;;;;;;11.10;2.50;;;21.10;99.90;;;;;;5092614;28;20044;-68
2023/07/13 06:00:05;;;;;;;12.50;2.63;;;22.30;99.90;;;;;;5092358;28;20438;-69
2023/07/13 06:02:31;;;;;;;7.83;2.83;;;23.10;99.90;;;;;;5093185;28;20076;-68
2023/07/13 06:04:56;;;;;;;9.27;2.87;;;23.80;99.90;;;;;;5092821;28;20376;-68
2023/07/13 06:07:22;;;;;;;10.97;3.13;;;24.60;99.90;;;;;;5092578;28;20056;-68
2023/07/13 06:09:48;;;;;;;8.30;2.60;;;25.50;99.90;;;;;;5092747;28;20047;-68
2023/07/13 06:12:13;;;;;;;10.47;2.93;;;26.30;99.90;;;;;;5092547;28;20044;-69
2023/07/13 06:14:39;;;;;;;8.63;3.10;;;26.70;99.90;;;;;;5092716;28;20084;-68
2023/07/13 06:17:05;;;;;;;8.07;2.50;;;27.00;99.90;;;;;;5092743;28;20040;-69
2023/07/13 06:19:31;;;;;;;8.33;2.33;;;27.10;99.90;;;;;;5092974;28;20036;-68
2023/07/13 06:21:58;;;;;;;8.43;2.47;;;27.70;99.90;;;;;;5092809;28;20040;-68
2023/07/13 06:24:24;;;;;;;8.97;2.70;;;27.90;98.20;;;;;;5092188;28;20651;-69
2023/07/13 06:26:50;;;;;;;7.40;2.70;;;27.30;98.00;;;;;;5091736;28;20055;-68
2023/07/13 06:29:16;;;;;;;9.30;2.53;;;26.20;99.90;;;;;;5092300;28;20036;-68
2023/07/13 06:31:42;;;;;;;9.30;2.83;;;25.10;99.90;;;;;;5092690;28;20055;-68
2023/07/13 06:34:08;;;;;;;7.77;2.20;;;24.10;99.90;;;;;;5092136;28;20545;-68
2023/07/13 06:36:34;;;;;;;8.90;2.77;;;23.30;99.90;;;;;;5091743;28;20412;-68
2023/07/13 06:38:59;;;;;;;6.20;2.20;;;22.80;99.90;;;;;;5092697;28;20040;-68
2023/07/13 06:41:26;;;;;;;8.37;2.73;;;22.30;99.90;;;;;;5092396;28;20965;-67
2023/07/13 06:43:53;;;;;;;12.70;3.10;;;21.90;99.90;;;;;;5092652;28;20117;-68
2023/07/13 06:46:23;;;;;;;8.50;2.50;;;21.60;99.90;;;;;;5092296;28;20048;-68
2023/07/13 06:48:49;;;;;;;12.63;3.10;;;21.30;99.90;;;;;;5092704;28;20113;-67
2023/07/13 06:51:15;;;;;;;13.67;3.10;;;21.00;99.90;;;;;;5092281;28;20495;-68
2023/07/13 06:53:42;;;;;;;8.70;2.60;;;21.00;99.90;;;;;;5092780;28;20047;-69
2023/07/13 06:56:08;;;;;;;7.33;2.90;;;21.30;99.90;;;;;;5091992;28;20487;-68
2023/07/13 06:58:34;;;;;;;10.77;2.50;;;21.90;99.90;;;;;;5092411;28;20044;-68
2023/07/13 07:00:59;;;;;;;10.57;2.50;;;22.60;99.90;;;;;;5092450;28;20044;-68
2023/07/13 07:03:25;;;;;;;7.93;2.20;;;22.90;99.90;;;;;;5092119;28;20077;-68
2023/07/13 07:05:51;;;;;;;9.83;2.33;;;22.80;99.90;;;;;;5092601;28;20044;-68
2023/07/13 07:08:16;;;;;;;8.40;2.70;;;22.50;99.90;;;;;;5092107;28;20043;-69
2023/07/13 07:10:42;;;;;;;9.27;2.57;;;22.20;99.90;;;;;;5094631;28;20044;-69
2023/07/13 07:13:08;;;;;;;11.77;3.73;;;21.80;99.90;;;;;;5096067;28;20051;-69
2023/07/13 07:15:35;;;;;;;13.20;4.10;;;21.40;99.90;;;;;;5095970;28;20134;-70
2023/07/13 07:18:01;;;;;;;16.27;3.77;;;21.00;99.90;;;;;;5096046;28;20122;-71
2023/07/13 07:20:26;;;;;;;10.03;3.00;;;20.50;99.90;;;;;;5095697;28;20556;-70
2023/07/13 07:22:52;;;;;;;10.83;2.90;;;20.10;99.90;;;;;;5096164;28;20491;-70
2023/07/13 07:25:18;;;;;;;8.80;3.07;;;19.90;99.90;;;;;;5095680;28;20040;-70
2023/07/13 07:27:45;;;;;;;10.73;2.87;;;19.80;99.90;;;;;;5095917;28;20044;-69
2023/07/13 07:30:11;;;;;;;9.00;3.03;;;19.80;99.90;;;;;;5095910;28;20048;-72
2023/07/13 07:32:36;;;;;;;7.60;2.80;;;19.90;99.90;;;;;;5096108;28;20054;-69
2023/07/13 07:35:02;;;;;;;12.03;3.43;;;19.90;99.90;;;;;;5095676;28;20134;-69
2023/07/13 07:37:28;;;;;;;8.17;2.50;;;20.10;99.90;;;;;;5094529;28;20048;-69
2023/07/13 07:39:54;;;;;;;7.87;2.43;;;20.30;99.90;;;;;;5096024;28;20048;-69
2023/07/13 07:42:20;;;;;;;6.87;2.27;;;20.50;99.90;;;;;;5095384;28;20392;-69
2023/07/13 07:44:45;;;;;;;6.37;1.97;;;20.50;99.90;;;;;;5095637;28;20458;-69
2023/07/13 07:47:11;;;;;;;8.67;2.60;;;20.70;99.90;;;;;;5095505;28;20048;-68
2023/07/13 07:49:38;;;;;;;7.50;2.17;;;20.80;99.90;;;;;;5095070;28;20070;-69
2023/07/13 07:52:04;;;;;;;6.63;2.57;;;21.20;99.90;;;;;;5095435;28;20055;-69
2023/07/13 07:54:30;;;;;;;8.67;2.50;;;21.50;99.90;;;;;;5095195;28;20059;-69
2023/07/13 07:56:56;;;;;;;6.57;2.57;;;22.00;99.90;;;;;;5095381;28;20122;-70
2023/07/13 07:59:21;;;;;;;8.50;2.30;;;22.50;99.90;;;;;;5094515;28;20073;-70
2023/07/13 08:01:50;;;;;;;6.80;2.10;;;23.00;99.90;;;;;;5095080;28;20044;-68
2023/07/13 08:04:16;;;;;;;5.73;2.20;;;24.30;99.90;;;;;;5094523;28;20411;-69
2023/07/13 08:06:42;;;;;;;7.03;2.20;;;25.40;99.90;;;;;;5094991;28;20051;-69
2023/07/13 08:09:08;;;;;;;7.90;2.67;;;25.50;99.90;;;;;;5094987;28;20044;-68
2023/07/13 08:11:34;;;;;;;8.30;2.33;;;25.90;99.90;;;;;;5094890;28;20051;-69
2023/07/13 08:13:59;;;;;;;7.07;2.53;;;27.10;99.90;;;;;;5077270;28;20044;-68
2023/07/13 08:16:26;;;;;;;7.70;2.60;;;28.00;99.90;;;;;;5094724;28;20047;-69
2023/07/13 08:18:52;;;;;;;6.43;2.43;;;28.90;99.90;;;;;;5094960;28;20472;-68
2023/07/13 08:21:19;;;;;;;6.43;2.10;;;28.60;97.60;;;;;;5092372;28;20055;-70
2023/07/13 08:23:46;;;;;;;7.13;2.07;;;27.80;96.70;;;;;;5093602;28;20066;-69
2023/07/13 08:26:12;;;;;;;5.17;1.97;;;26.80;96.30;;;;;;5094740;28;20122;-68
2023/07/13 08:28:37;;;;;;;6.27;2.13;;;26.00;97.90;;;;;;5094303;28;20055;-68
2023/07/13 08:31:07;;;;;;;6.80;2.30;;;25.70;99.90;;;;;;5093424;28;20044;-69
2023/07/13 08:33:35;;;;;;;8.57;2.73;;;25.70;99.90;;;;;;5094324;28;20040;-69
2023/07/13 08:36:01;;;;;;;8.03;2.00;;;26.50;99.90;;;;;;5094190;28;20060;-68
2023/07/13 08:38:26;;;;;;;7.20;2.30;;;26.30;96.90;;;;;;5094288;28;20036;-68
2023/07/13 08:40:55;;;;;;;5.57;1.87;;;26.10;96.60;;;;;;5093449;28;20066;-67
2023/07/13 08:43:27;;;;;;;7.50;2.30;;;25.50;97.60;;;;;;5094175;28;20095;-68
2023/07/13 08:46:08;;;;;;;6.10;2.13;;;25.00;97.90;;;;;;5094361;28;20083;-68
2023/07/13 08:48:50;;;;;;;6.23;2.10;;;24.60;99.60;;;;;;5094003;28;20042;-68
2023/07/13 08:51:27;;;;;;;8.33;2.43;;;24.40;99.90;;;;;;5093115;28;20510;-68
2023/07/13 08:53:59;;;;;;;8.73;2.47;;;24.40;99.90;;;;;;5094491;28;20088;-67
2023/07/13 08:56:28;;;;;;;5.77;2.00;;;24.50;99.90;;;;;;5094010;28;20059;-68
2023/07/13 08:58:58;;;;;;;5.07;1.70;;;24.70;99.90;;;;;;5094348;28;20044;-68
2023/07/13 09:01:54;;;;;;;7.87;2.07;;;24.70;98.50;;;;;;5092415;28;20450;-68
2023/07/13 09:04:25;;;;;;;6.47;2.00;;;24.60;97.30;;;;;;5094101;28;20048;-72
2023/07/13 09:06:53;;;;;;;3.60;1.50;;;24.60;96.90;;;;;;5094005;28;20051;-72
2023/07/13 09:09:41;;;;;;;5.17;1.73;;;24.60;95.80;;;;;;5093738;28;20380;-71
2023/07/13 09:12:35;;;;;;;4.47;1.50;;;24.70;95.10;;;;;;5092903;28;20040;-71
2023/07/13 09:15:05;;;;;;;3.70;1.50;;;24.70;92.60;;;;;;5094054;28;20122;-73
2023/07/13 09:17:45;;;;;;;6.10;1.53;;;24.60;91.50;;;;;;5093473;28;20073;-74
2023/07/13 09:20:34;;;;;;;5.13;1.80;;;24.50;90.40;;;;;;5093692;28;20464;-75
2023/07/13 09:23:03;;;;;;;3.70;1.50;;;24.40;92.00;;;;;;5093301;28;20109;-72
2023/07/13 09:25:29;;;;;;;4.37;1.50;;;24.30;91.80;;;;;;5093230;28;20040;-75
2023/07/13 09:27:59;;;;;;;4.13;1.37;;;24.20;90.60;;;;;;5093444;28;20052;-75
2023/07/13 09:30:33;;;;;;;6.40;1.60;;;24.10;90.70;;;;;;5093319;28;20087;-75
2023/07/13 09:32:59;;;;;;;4.07;1.65;;;23.90;89.40;;;;;;5092273;28;20093;-72
2023/07/13 09:35:28;;;;;;;7.37;1.60;;;23.90;91.30;;;;;;5093071;28;20056;-72
2023/07/13 09:37:59;;;;;;;2.90;1.30;;;23.90;92.10;;;;;;5093359;28;20055;-73
2023/07/13 09:40:39;;;;;;;3.60;1.40;;;23.90;91.50;;;;;;5092151;28;20048;-70
2023/07/13 09:43:07;;;;;;;4.17;1.57;;;23.80;92.40;;;;;;5093571;28;20044;-74
2023/07/13 09:45:34;;;;;;;5.50;1.70;;;23.80;92.00;;;;;;5092238;28;20056;-73
2023/07/13 09:48:07;;;;;;;5.00;1.60;;;23.70;92.70;;;;;;5092678;28;20048;-73
2023/07/13 09:50:34;;;;;;;4.27;1.70;;;23.50;92.10;;;;;;5092445;28;20093;-68
2023/07/13 09:53:01;;;;;;;2.60;1.30;;;23.50;92.60;;;;;;5092768;28;20044;-68
2023/07/13 09:55:34;;;;;;;4.23;1.30;;;23.50;92.40;;;;;;5092581;28;20044;-69
2023/07/13 09:58:12;;;;;;;3.77;1.80;;;23.50;91.30;;;;;;5090100;28;20052;-70
2023/07/13 10:00:40;;;;;;;4.57;1.77;;;23.50;91.50;;;;;;5089584;28;20079;-69
2023/07/13 10:03:20;;;;;;;6.57;1.50;;;23.50;91.50;;;;;;5092699;28;20056;-68
2023/07/13 10:05:47;;;;;;;2.97;1.20;;;23.60;91.70;;;;;;5090686;28;20099;-68
2023/07/13 10:08:30;;;;;;;4.00;1.40;;;23.60;92.20;;;;;;5092883;28;20044;-68
2023/07/13 10:11:08;;;;;;;3.60;1.37;;;23.40;92.70;;;;;;5093088;28;20077;-68
2023/07/13 10:13:36;;;;;;;4.23;1.63;;;23.30;91.70;;;;;;5092287;28;20500;-70
2023/07/13 10:16:07;;;;;;;3.50;1.50;;;23.10;92.30;;;;;;5092803;28;20053;-68
2023/07/13 10:18:47;;;;;;;5.73;1.60;;;22.80;91.10;;;;;;5092875;28;20044;-68
2023/07/13 10:21:18;;;;;;;6.03;1.70;;;22.60;92.10;;;;;;5093086;28;20113;-66
2023/07/13 10:23:49;;;;;;;5.83;1.70;;;22.60;92.60;;;;;;5092720;28;20071;-67
2023/07/13 10:26:22;;;;;;;4.53;1.57;;;22.60;92.70;;;;;;5093152;28;20134;-67
2023/07/13 10:28:53;;;;;;;3.93;1.50;;;22.50;92.60;;;;;;5092505;28;20094;-67
2023/07/13 10:31:20;;;;;;;5.80;1.80;;;22.60;93.30;;;;;;5092968;28;20079;-67
2023/07/13 10:33:45;;;;;;;3.93;1.27;;;22.50;92.00;;;;;;5091320;28;20059;-68
2023/07/13 10:36:27;;;;;;;4.60;1.53;;;22.50;93.00;;;;;;5090974;28;20139;-66
2023/07/13 10:38:56;;;;;;;6.17;2.10;;;22.50;92.80;;;;;;5091863;28;20040;-67
2023/07/13 10:41:25;;;;;;;4.63;1.60;;;22.40;93.60;;;;;;5092114;28;20093;-67
2023/07/13 10:43:54;;;;;;;4.93;1.80;;;22.50;93.80;;;;;;5091868;28;20036;-69
2023/07/13 10:46:22;;;;;;;5.97;1.50;;;22.50;94.20;;;;;;5094566;28;20044;-69
2023/07/13 10:48:55;;;;;;;4.30;1.60;;;22.50;92.80;;;;;;5093002;28;20040;-71
2023/07/13 10:51:22;;;;;;;4.03;1.73;;;22.50;91.90;;;;;;5096514;28;20051;-70
2023/07/13 10:54:08;;;;;;;6.60;1.93;;;22.40;92.50;;;;;;5095228;28;20483;-70
2023/07/13 10:56:35;;;;;;;7.77;2.03;;;22.40;92.60;;;;;;5096406;28;20107;-71
2023/07/13 10:59:14;;;;;;;5.70;1.67;;;22.40;93.20;;;;;;5096329;28;20040;-70
2023/07/13 11:01:50;;;;;;;8.37;1.90;;;22.50;93.90;;;;;;5096097;28;20107;-71
2023/07/13 11:04:17;;;;;;;4.93;2.10;;;22.60;93.60;;;;;;5096303;28;20058;-70
2023/07/13 11:06:49;;;;;;;5.77;1.93;;;22.70;94.00;;;;;;5096000;28;20492;-69
2023/07/13 11:09:19;;;;;;;7.20;2.00;;;22.80;94.20;;;;;;5096174;28;20476;-70
2023/07/13 11:11:45;;;;;;;6.53;2.00;;;22.80;93.40;;;;;;5095818;28;20084;-67
2023/07/13 11:14:31;;;;;;;5.60;1.80;;;22.70;92.10;;;;;;5095715;28;20542;-67
2023/07/13 11:16:57;;;;;;;6.17;1.73;;;22.70;92.30;;;;;;5094220;28;20117;-68
2023/07/13 11:19:22;;;;;;;4.23;1.60;;;22.60;92.10;;;;;;5095460;28;20064;-69
2023/07/13 11:22:09;;;;;;;4.27;1.50;;;22.70;90.40;;;;;;5095489;28;20567;-70
2023/07/13 11:24:53;;;;;;;4.97;1.90;;;22.60;90.40;;;;;;5094159;28;20526;-70
2023/07/13 11:27:21;;;;;;;4.97;1.60;;;22.60;91.90;;;;;;5095917;28;20055;-70
2023/07/13 11:29:49;;;;;;;5.20;2.10;;;22.60;91.90;;;;;;5095394;28;20097;-70
2023/07/13 11:32:32;;;;;;;4.87;2.00;;;22.60;92.50;;;;;;5095692;28;20079;-70
2023/07/13 11:34:58;;;;;;;4.13;1.80;;;22.60;93.60;;;;;;5095521;28;20113;-70
2023/07/13 11:37:26;;;;;;;5.73;2.10;;;22.70;94.20;;;;;;5095580;28;20063;-70
2023/07/13 11:39:52;;;;;;;5.13;1.70;;;22.80;93.50;;;;;;5095309;28;20063;-70
2023/07/13 11:42:20;;;;;;;4.93;2.70;;;22.70;92.30;;;;;;5095560;28;20488;-70
2023/07/13 11:44:53;;;;;;;10.43;2.10;;;22.70;92.40;;;;;;5095243;28;20093;-70
2023/07/13 11:47:21;;;;;;;6.77;2.20;;;22.70;93.60;;;;;;5095422;28;20056;-70
2023/07/13 11:49:52;;;;;;;6.57;1.97;;;22.70;92.40;;;;;;5095030;28;20173;-70
2023/07/13 11:52:26;;;;;;;5.90;1.67;;;22.70;91.50;;;;;;5095347;28;20048;-69
2023/07/13 11:54:55;;;;;;;4.53;1.83;;;22.70;91.30;;;;;;5095157;28;20105;-70
2023/07/13 11:57:26;;;;;;;4.80;1.53;;;22.60;89.50;;;;;;5095224;28;20127;-71
2023/07/13 11:59:54;;;;;;;4.67;1.60;;;22.50;88.80;;;;;;5093934;28;20052;-73
2023/07/13 12:02:33;;;;;;;5.17;1.47;;;22.40;89.90;;;;;;5095163;28;20051;-72
2023/07/13 12:05:02;;;;;;;8.67;2.17;;;22.40;91.00;;;;;;5094589;28;20040;-72
2023/07/13 12:07:30;;;;;;;5.03;1.90;;;22.40;91.20;;;;;;5094010;28;20503;-72
2023/07/13 12:10:10;;;;;;;4.33;1.73;;;22.40;91.40;;;;;;5094768;28;20387;-72
2023/07/13 12:12:40;;;;;;;5.73;2.43;;;22.40;90.90;;;;;;5094697;28;20624;-71
2023/07/13 12:15:07;;;;;;;6.27;2.13;;;22.30;90.20;;;;;;5094597;28;20056;-72
2023/07/13 12:17:35;;;;;;;7.30;2.60;;;22.30;89.60;;;;;;5094719;28;20036;-71
2023/07/13 12:20:12;;;;;;;5.70;1.60;;;22.20;90.80;;;;;;5094842;28;20113;-72
2023/07/13 12:22:38;;;;;;;4.73;1.57;;;22.20;88.60;;;;;;5094349;28;20461;-71
2023/07/13 12:25:05;;;;;;;6.53;1.80;;;22.20;88.80;;;;;;5094368;28;20048;-71
2023/07/13 12:27:32;;;;;;;4.77;1.80;;;22.10;87.90;;;;;;5094624;28;20043;-71
2023/07/13 12:30:05;;;;;;;5.97;1.50;;;22.10;88.60;;;;;;5093993;28;20036;-69
2023/07/13 12:32:32;;;;;;;5.77;1.53;;;22.10;89.90;;;;;;5093314;28;20040;-71
2023/07/13 12:35:14;;;;;;;3.10;1.60;;;22.10;91.30;;;;;;5093970;28;20087;-72
2023/07/13 12:37:43;;;;;;;5.10;1.90;;;22.20;91.60;;;;;;5094529;28;20060;-72
2023/07/13 12:40:28;;;;;;;5.77;1.50;;;22.20;92.40;;;;;;5094099;28;20036;-72
2023/07/13 12:42:54;;;;;;;4.80;1.73;;;22.20;91.70;;;;;;5094176;28;20044;-72
2023/07/13 12:45:23;;;;;;;5.53;2.07;;;22.20;92.10;;;;;;5094338;28;20126;-72
2023/07/13 12:47:53;;;;;;;3.90;1.83;;;22.10;91.70;;;;;;5092644;28;20055;-72
2023/07/13 12:50:22;;;;;;;3.50;1.43;;;22.10;92.40;;;;;;5093022;28;20040;-72